sensor_id;sensor_type;location;lat;lon;timestamp;temperature;humidity
27647;DHT22;42229;51.230;6.240;2022-07-25T00:01:47;23.30;66.80
27647;DHT22;42229;51.230;6.240;2022-07-25T00:04:13;23.30;66.80
27647;DHT22;42229;51.230;6.240;2022-07-25T00:06:40;23.30;66.90
27647;DHT22;42229;51.230;6.240;2022-07-25T00:09:06;23.30;67.10
27647;DHT22;42229;51.230;6.240;2022-07-25T00:11:33;23.20;67.40
27647;DHT22;42229;51.230;6.240;2022-07-25T00:13:59;23.20;67.40
27647;DHT22;42229;51.230;6.240;2022-07-25T00:16:25;23.20;67.60
27647;DHT22;42229;51.230;6.240;2022-07-25T00:18:52;23.20;67.80
27647;DHT22;42229;51.230;6.240;2022-07-25T00:21:18;23.20;68.10
27647;DHT22;42229;51.230;6.240;2022-07-25T00:23:44;23.20;68.50
27647;DHT22;42229;51.230;6.240;2022-07-25T00:26:10;23.10;68.30
27647;DHT22;42229;51.230;6.240;2022-07-25T00:28:37;23.10;68.40
27647;DHT22;42229;51.230;6.240;2022-07-25T00:31:03;23.10;68.70
27647;DHT22;42229;51.230;6.240;2022-07-25T00:33:29;23.10;69.00
27647;DHT22;42229;51.230;6.240;2022-07-25T00:35:55;23.10;69.00
27647;DHT22;42229;51.230;6.240;2022-07-25T00:38:22;23.00;69.40
27647;DHT22;42229;51.230;6.240;2022-07-25T00:40:48;23.10;70.70
27647;DHT22;42229;51.230;6.240;2022-07-25T00:43:14;23.00;70.00
27647;DHT22;42229;51.230;6.240;2022-07-25T00:45:40;23.00;70.10
27647;DHT22;42229;51.230;6.240;2022-07-25T00:48:07;22.90;70.40
27647;DHT22;42229;51.230;6.240;2022-07-25T00:50:34;22.90;70.70
27647;DHT22;42229;51.230;6.240;2022-07-25T00:53:00;22.90;70.70
27647;DHT22;42229;51.230;6.240;2022-07-25T00:55:27;22.80;70.80
27647;DHT22;42229;51.230;6.240;2022-07-25T00:57:54;22.80;70.70
27647;DHT22;42229;51.230;6.240;2022-07-25T01:00:20;22.80;70.90
27647;DHT22;42229;51.230;6.240;2022-07-25T01:02:46;22.70;71.10
27647;DHT22;42229;51.230;6.240;2022-07-25T01:05:13;22.70;71.20
27647;DHT22;42229;51.230;6.240;2022-07-25T01:07:39;22.70;71.50
27647;DHT22;42229;51.230;6.240;2022-07-25T01:10:06;22.70;71.50
27647;DHT22;42229;51.230;6.240;2022-07-25T01:12:53;22.60;71.70
27647;DHT22;42229;51.230;6.240;2022-07-25T01:15:20;22.60;72.00
27647;DHT22;42229;51.230;6.240;2022-07-25T01:17:47;22.50;72.20
27647;DHT22;42229;51.230;6.240;2022-07-25T01:20:15;22.50;72.50
27647;DHT22;42229;51.230;6.240;2022-07-25T01:22:45;22.50;72.70
27647;DHT22;42229;51.230;6.240;2022-07-25T01:25:11;22.40;72.90
27647;DHT22;42229;51.230;6.240;2022-07-25T01:27:39;22.40;73.10
27647;DHT22;42229;51.230;6.240;2022-07-25T01:30:06;22.30;73.30
27647;DHT22;42229;51.230;6.240;2022-07-25T01:32:34;22.30;73.40
27647;DHT22;42229;51.230;6.240;2022-07-25T01:35:01;22.30;73.70
27647;DHT22;42229;51.230;6.240;2022-07-25T01:37:28;22.20;73.80
27647;DHT22;42229;51.230;6.240;2022-07-25T01:39:54;22.30;74.00
27647;DHT22;42229;51.230;6.240;2022-07-25T01:42:20;22.20;74.20
27647;DHT22;42229;51.230;6.240;2022-07-25T01:44:47;22.10;74.40
27647;DHT22;42229;51.230;6.240;2022-07-25T01:47:13;22.10;74.80
27647;DHT22;42229;51.230;6.240;2022-07-25T01:49:39;22.10;75.00
27647;DHT22;42229;51.230;6.240;2022-07-25T01:52:06;22.10;75.20
27647;DHT22;42229;51.230;6.240;2022-07-25T01:54:32;22.10;75.50
27647;DHT22;42229;51.230;6.240;2022-07-25T01:56:58;22.10;75.70
27647;DHT22;42229;51.230;6.240;2022-07-25T01:59:24;22.00;75.90
27647;DHT22;42229;51.230;6.240;2022-07-25T02:01:51;22.00;76.00
27647;DHT22;42229;51.230;6.240;2022-07-25T02:04:17;22.00;76.40
27647;DHT22;42229;51.230;6.240;2022-07-25T02:06:43;21.90;76.60
27647;DHT22;42229;51.230;6.240;2022-07-25T02:09:09;21.90;76.80
27647;DHT22;42229;51.230;6.240;2022-07-25T02:11:35;21.90;77.00
27647;DHT22;42229;51.230;6.240;2022-07-25T02:14:02;21.90;77.30
27647;DHT22;42229;51.230;6.240;2022-07-25T02:16:28;21.90;77.60
27647;DHT22;42229;51.230;6.240;2022-07-25T02:18:54;21.80;77.70
27647;DHT22;42229;51.230;6.240;2022-07-25T02:21:21;21.80;78.00
27647;DHT22;42229;51.230;6.240;2022-07-25T02:23:47;21.80;78.40
27647;DHT22;42229;51.230;6.240;2022-07-25T02:26:13;21.80;78.60
27647;DHT22;42229;51.230;6.240;2022-07-25T02:28:40;21.80;79.00
27647;DHT22;42229;51.230;6.240;2022-07-25T02:31:06;21.80;78.90
27647;DHT22;42229;51.230;6.240;2022-07-25T02:33:32;21.70;79.10
27647;DHT22;42229;51.230;6.240;2022-07-25T02:35:59;21.70;79.40
27647;DHT22;42229;51.230;6.240;2022-07-25T02:38:25;21.70;79.70
27647;DHT22;42229;51.230;6.240;2022-07-25T02:40:51;21.70;79.80
27647;DHT22;42229;51.230;6.240;2022-07-25T02:43:18;21.70;80.10
27647;DHT22;42229;51.230;6.240;2022-07-25T02:45:45;21.70;80.30
27647;DHT22;42229;51.230;6.240;2022-07-25T02:48:11;21.70;80.70
27647;DHT22;42229;51.230;6.240;2022-07-25T02:50:38;21.70;81.10
27647;DHT22;42229;51.230;6.240;2022-07-25T02:53:04;21.70;82.10
27647;DHT22;42229;51.230;6.240;2022-07-25T02:55:30;21.70;81.80
27647;DHT22;42229;51.230;6.240;2022-07-25T02:57:56;21.60;81.80
27647;DHT22;42229;51.230;6.240;2022-07-25T03:00:23;21.60;82.60
27647;DHT22;42229;51.230;6.240;2022-07-25T03:02:49;21.60;82.90
27647;DHT22;42229;51.230;6.240;2022-07-25T03:05:16;21.70;84.70
27647;DHT22;42229;51.230;6.240;2022-07-25T03:07:43;21.70;83.50
27647;DHT22;42229;51.230;6.240;2022-07-25T03:10:10;21.70;85.10
27647;DHT22;42229;51.230;6.240;2022-07-25T03:12:38;21.70;84.30
27647;DHT22;42229;51.230;6.240;2022-07-25T03:15:05;21.70;84.60
27647;DHT22;42229;51.230;6.240;2022-07-25T03:17:32;21.70;84.80
27647;DHT22;42229;51.230;6.240;2022-07-25T03:19:58;21.70;86.60
27647;DHT22;42229;51.230;6.240;2022-07-25T03:22:24;21.70;87.20
27647;DHT22;42229;51.230;6.240;2022-07-25T03:24:51;21.70;86.90
27647;DHT22;42229;51.230;6.240;2022-07-25T03:27:18;21.80;86.20
27647;DHT22;42229;51.230;6.240;2022-07-25T03:29:45;21.80;86.10
27647;DHT22;42229;51.230;6.240;2022-07-25T03:32:11;21.80;86.10
27647;DHT22;42229;51.230;6.240;2022-07-25T03:34:37;21.80;86.10
27647;DHT22;42229;51.230;6.240;2022-07-25T03:37:03;21.80;87.00
27647;DHT22;42229;51.230;6.240;2022-07-25T03:39:30;21.80;87.30
27647;DHT22;42229;51.230;6.240;2022-07-25T03:41:56;21.80;88.30
27647;DHT22;42229;51.230;6.240;2022-07-25T03:44:23;21.70;89.90
27647;DHT22;42229;51.230;6.240;2022-07-25T03:46:50;21.70;89.30
27647;DHT22;42229;51.230;6.240;2022-07-25T03:49:17;21.80;90.10
27647;DHT22;42229;51.230;6.240;2022-07-25T03:51:43;21.70;89.20
27647;DHT22;42229;51.230;6.240;2022-07-25T03:54:09;21.70;89.10
27647;DHT22;42229;51.230;6.240;2022-07-25T03:56:39;21.70;89.30
27647;DHT22;42229;51.230;6.240;2022-07-25T03:59:07;21.70;88.80
27647;DHT22;42229;51.230;6.240;2022-07-25T04:01:34;21.60;88.60
27647;DHT22;42229;51.230;6.240;2022-07-25T04:04:00;21.60;88.70
27647;DHT22;42229;51.230;6.240;2022-07-25T04:06:27;21.50;89.00
27647;DHT22;42229;51.230;6.240;2022-07-25T04:08:54;21.50;89.00
27647;DHT22;42229;51.230;6.240;2022-07-25T04:11:21;21.50;90.00
27647;DHT22;42229;51.230;6.240;2022-07-25T04:13:47;21.50;90.00
27647;DHT22;42229;51.230;6.240;2022-07-25T04:16:14;21.50;90.00
27647;DHT22;42229;51.230;6.240;2022-07-25T04:18:40;21.50;89.80
27647;DHT22;42229;51.230;6.240;2022-07-25T04:21:07;21.50;89.90
27647;DHT22;42229;51.230;6.240;2022-07-25T04:23:33;21.50;90.00
27647;DHT22;42229;51.230;6.240;2022-07-25T04:26:00;21.50;90.00
27647;DHT22;42229;51.230;6.240;2022-07-25T04:28:26;21.50;90.00
27647;DHT22;42229;51.230;6.240;2022-07-25T04:30:53;21.50;90.10
27647;DHT22;42229;51.230;6.240;2022-07-25T04:33:19;21.50;90.20
27647;DHT22;42229;51.230;6.240;2022-07-25T04:35:46;21.50;90.20
27647;DHT22;42229;51.230;6.240;2022-07-25T04:38:12;21.50;90.30
27647;DHT22;42229;51.230;6.240;2022-07-25T04:40:38;21.50;90.40
27647;DHT22;42229;51.230;6.240;2022-07-25T04:43:05;21.50;90.80
27647;DHT22;42229;51.230;6.240;2022-07-25T04:45:31;21.50;91.50
27647;DHT22;42229;51.230;6.240;2022-07-25T04:47:59;21.60;91.40
27647;DHT22;42229;51.230;6.240;2022-07-25T04:50:26;21.60;91.20
27647;DHT22;42229;51.230;6.240;2022-07-25T04:52:53;21.60;91.10
27647;DHT22;42229;51.230;6.240;2022-07-25T04:55:19;21.70;91.20
27647;DHT22;42229;51.230;6.240;2022-07-25T04:57:46;21.70;91.20
27647;DHT22;42229;51.230;6.240;2022-07-25T05:00:12;21.70;91.20
27647;DHT22;42229;51.230;6.240;2022-07-25T05:02:39;21.80;91.40
27647;DHT22;42229;51.230;6.240;2022-07-25T05:05:06;21.80;91.70
27647;DHT22;42229;51.230;6.240;2022-07-25T05:07:33;21.80;91.50
27647;DHT22;42229;51.230;6.240;2022-07-25T05:10:00;21.90;91.60
27647;DHT22;42229;51.230;6.240;2022-07-25T05:12:26;22.00;91.60
27647;DHT22;42229;51.230;6.240;2022-07-25T05:14:53;22.00;91.80
27647;DHT22;42229;51.230;6.240;2022-07-25T05:17:20;22.00;91.70
27647;DHT22;42229;51.230;6.240;2022-07-25T05:19:46;22.10;92.00
27647;DHT22;42229;51.230;6.240;2022-07-25T05:22:12;22.20;92.20
27647;DHT22;42229;51.230;6.240;2022-07-25T05:24:38;22.20;92.10
27647;DHT22;42229;51.230;6.240;2022-07-25T05:27:05;22.30;92.10
27647;DHT22;42229;51.230;6.240;2022-07-25T05:29:31;22.40;92.10
27647;DHT22;42229;51.230;6.240;2022-07-25T05:31:57;22.40;92.10
27647;DHT22;42229;51.230;6.240;2022-07-25T05:34:23;22.50;92.20
27647;DHT22;42229;51.230;6.240;2022-07-25T05:36:49;22.60;92.30
27647;DHT22;42229;51.230;6.240;2022-07-25T05:39:16;22.70;92.30
27647;DHT22;42229;51.230;6.240;2022-07-25T05:41:42;22.70;92.30
27647;DHT22;42229;51.230;6.240;2022-07-25T05:44:08;22.80;92.60
27647;DHT22;42229;51.230;6.240;2022-07-25T05:46:35;23.00;92.60
27647;DHT22;42229;51.230;6.240;2022-07-25T05:49:01;23.10;92.70
27647;DHT22;42229;51.230;6.240;2022-07-25T05:51:27;23.20;93.00
27647;DHT22;42229;51.230;6.240;2022-07-25T05:53:53;23.40;92.90
27647;DHT22;42229;51.230;6.240;2022-07-25T05:56:20;23.50;93.10
27647;DHT22;42229;51.230;6.240;2022-07-25T05:58:46;23.70;93.10
27647;DHT22;42229;51.230;6.240;2022-07-25T06:01:13;23.80;93.20
27647;DHT22;42229;51.230;6.240;2022-07-25T06:03:40;24.00;93.40
27647;DHT22;42229;51.230;6.240;2022-07-25T06:06:07;24.20;93.40
27647;DHT22;42229;51.230;6.240;2022-07-25T06:08:34;24.40;93.40
27647;DHT22;42229;51.230;6.240;2022-07-25T06:11:01;24.60;93.40
27647;DHT22;42229;51.230;6.240;2022-07-25T06:13:29;24.70;93.20
27647;DHT22;42229;51.230;6.240;2022-07-25T06:15:55;24.90;93.30
27647;DHT22;42229;51.230;6.240;2022-07-25T06:18:22;25.10;93.20
27647;DHT22;42229;51.230;6.240;2022-07-25T06:20:49;25.30;93.30
27647;DHT22;42229;51.230;6.240;2022-07-25T06:23:15;25.40;93.00
27647;DHT22;42229;51.230;6.240;2022-07-25T06:25:42;25.60;93.20
27647;DHT22;42229;51.230;6.240;2022-07-25T06:28:08;25.70;92.90
27647;DHT22;42229;51.230;6.240;2022-07-25T06:30:34;25.80;93.10
27647;DHT22;42229;51.230;6.240;2022-07-25T06:33:01;25.90;91.40
27647;DHT22;42229;51.230;6.240;2022-07-25T06:35:27;26.10;92.50
27647;DHT22;42229;51.230;6.240;2022-07-25T06:37:53;26.20;91.60
27647;DHT22;42229;51.230;6.240;2022-07-25T06:40:19;26.30;91.80
27647;DHT22;42229;51.230;6.240;2022-07-25T06:42:46;26.40;91.40
27647;DHT22;42229;51.230;6.240;2022-07-25T06:45:13;26.50;92.00
27647;DHT22;42229;51.230;6.240;2022-07-25T06:47:40;26.70;88.40
27647;DHT22;42229;51.230;6.240;2022-07-25T06:50:08;26.80;87.50
27647;DHT22;42229;51.230;6.240;2022-07-25T06:52:36;26.90;89.10
27647;DHT22;42229;51.230;6.240;2022-07-25T06:55:03;27.00;85.50
27647;DHT22;42229;51.230;6.240;2022-07-25T06:57:30;27.10;90.20
27647;DHT22;42229;51.230;6.240;2022-07-25T06:59:56;27.20;90.00
27647;DHT22;42229;51.230;6.240;2022-07-25T07:02:23;27.30;91.00
27647;DHT22;42229;51.230;6.240;2022-07-25T07:04:49;27.30;90.30
27647;DHT22;42229;51.230;6.240;2022-07-25T07:07:15;27.30;89.70
27647;DHT22;42229;51.230;6.240;2022-07-25T07:09:42;27.40;87.00
27647;DHT22;42229;51.230;6.240;2022-07-25T07:12:08;27.40;85.70
27647;DHT22;42229;51.230;6.240;2022-07-25T07:14:35;27.40;86.90
27647;DHT22;42229;51.230;6.240;2022-07-25T07:17:03;27.40;85.00
27647;DHT22;42229;51.230;6.240;2022-07-25T07:19:29;27.40;83.90
27647;DHT22;42229;51.230;6.240;2022-07-25T07:21:56;27.40;85.40
27647;DHT22;42229;51.230;6.240;2022-07-25T07:24:22;27.40;85.80
27647;DHT22;42229;51.230;6.240;2022-07-25T07:26:48;27.40;83.90
27647;DHT22;42229;51.230;6.240;2022-07-25T07:29:14;27.30;85.80
27647;DHT22;42229;51.230;6.240;2022-07-25T07:31:40;27.30;83.60
27647;DHT22;42229;51.230;6.240;2022-07-25T07:34:07;27.30;85.40
27647;DHT22;42229;51.230;6.240;2022-07-25T07:36:33;27.30;85.60
27647;DHT22;42229;51.230;6.240;2022-07-25T07:38:59;27.30;84.80
27647;DHT22;42229;51.230;6.240;2022-07-25T07:41:25;27.20;85.40
27647;DHT22;42229;51.230;6.240;2022-07-25T07:43:52;27.20;86.10
27647;DHT22;42229;51.230;6.240;2022-07-25T07:46:19;27.20;85.90
27647;DHT22;42229;51.230;6.240;2022-07-25T07:48:45;27.20;85.90
27647;DHT22;42229;51.230;6.240;2022-07-25T07:51:11;27.10;85.80
27647;DHT22;42229;51.230;6.240;2022-07-25T07:53:38;27.10;86.40
27647;DHT22;42229;51.230;6.240;2022-07-25T07:56:22;27.10;87.20
27647;DHT22;42229;51.230;6.240;2022-07-25T07:58:49;27.10;86.40
27647;DHT22;42229;51.230;6.240;2022-07-25T08:01:15;27.10;87.40
27647;DHT22;42229;51.230;6.240;2022-07-25T08:03:41;27.00;86.40
27647;DHT22;42229;51.230;6.240;2022-07-25T08:06:07;27.00;86.20
27647;DHT22;42229;51.230;6.240;2022-07-25T08:08:34;27.00;86.60
27647;DHT22;42229;51.230;6.240;2022-07-25T08:11:00;27.00;86.90
27647;DHT22;42229;51.230;6.240;2022-07-25T08:13:27;26.90;86.10
27647;DHT22;42229;51.230;6.240;2022-07-25T08:15:56;26.90;85.00
27647;DHT22;42229;51.230;6.240;2022-07-25T08:18:23;26.80;84.40
27647;DHT22;42229;51.230;6.240;2022-07-25T08:20:51;26.70;83.10
27647;DHT22;42229;51.230;6.240;2022-07-25T08:23:18;26.60;84.60
27647;DHT22;42229;51.230;6.240;2022-07-25T08:25:44;26.50;84.50
27647;DHT22;42229;51.230;6.240;2022-07-25T08:28:12;26.50;85.40
27647;DHT22;42229;51.230;6.240;2022-07-25T08:30:39;26.50;85.90
27647;DHT22;42229;51.230;6.240;2022-07-25T08:33:07;26.40;85.40
27647;DHT22;42229;51.230;6.240;2022-07-25T08:35:44;26.50;86.30
27647;DHT22;42229;51.230;6.240;2022-07-25T08:38:21;26.40;86.00
27647;DHT22;42229;51.230;6.240;2022-07-25T08:40:48;26.40;86.50
27647;DHT22;42229;51.230;6.240;2022-07-25T08:43:15;26.40;85.40
27647;DHT22;42229;51.230;6.240;2022-07-25T08:45:46;26.50;82.20
27647;DHT22;42229;51.230;6.240;2022-07-25T08:48:15;26.50;82.80
27647;DHT22;42229;51.230;6.240;2022-07-25T08:50:42;26.60;83.00
27647;DHT22;42229;51.230;6.240;2022-07-25T08:53:09;26.70;82.60
27647;DHT22;42229;51.230;6.240;2022-07-25T08:55:35;26.70;82.00
27647;DHT22;42229;51.230;6.240;2022-07-25T08:58:01;26.80;80.30
27647;DHT22;42229;51.230;6.240;2022-07-25T09:00:28;26.90;81.10
27647;DHT22;42229;51.230;6.240;2022-07-25T09:02:55;27.00;82.50
27647;DHT22;42229;51.230;6.240;2022-07-25T09:05:24;27.10;80.30
27647;DHT22;42229;51.230;6.240;2022-07-25T09:07:51;27.30;77.50
27647;DHT22;42229;51.230;6.240;2022-07-25T09:10:19;27.30;78.90
27647;DHT22;42229;51.230;6.240;2022-07-25T09:15:26;27.40;79.60
27647;DHT22;42229;51.230;6.240;2022-07-25T09:17:53;27.50;81.00
27647;DHT22;42229;51.230;6.240;2022-07-25T09:20:19;27.60;75.30
27647;DHT22;42229;51.230;6.240;2022-07-25T09:22:48;27.50;76.20
27647;DHT22;42229;51.230;6.240;2022-07-25T09:25:21;27.50;75.50
27647;DHT22;42229;51.230;6.240;2022-07-25T09:27:53;27.50;75.30
27647;DHT22;42229;51.230;6.240;2022-07-25T09:30:19;27.40;74.50
27647;DHT22;42229;51.230;6.240;2022-07-25T09:32:45;27.40;75.70
27647;DHT22;42229;51.230;6.240;2022-07-25T09:35:12;27.30;75.40
27647;DHT22;42229;51.230;6.240;2022-07-25T09:37:38;27.30;76.10
27647;DHT22;42229;51.230;6.240;2022-07-25T09:40:11;27.30;76.60
27647;DHT22;42229;51.230;6.240;2022-07-25T09:42:39;27.30;76.40
27647;DHT22;42229;51.230;6.240;2022-07-25T09:45:09;27.30;75.50
27647;DHT22;42229;51.230;6.240;2022-07-25T09:47:50;27.30;74.10
27647;DHT22;42229;51.230;6.240;2022-07-25T09:50:28;27.30;74.20
27647;DHT22;42229;51.230;6.240;2022-07-25T09:52:57;27.40;74.90
27647;DHT22;42229;51.230;6.240;2022-07-25T09:55:25;27.50;75.10
27647;DHT22;42229;51.230;6.240;2022-07-25T09:57:51;27.60;75.00
27647;DHT22;42229;51.230;6.240;2022-07-25T10:00:19;27.70;75.20
27647;DHT22;42229;51.230;6.240;2022-07-25T10:02:50;27.80;74.60
27647;DHT22;42229;51.230;6.240;2022-07-25T10:05:39;27.90;74.40
27647;DHT22;42229;51.230;6.240;2022-07-25T10:08:26;27.90;73.00
27647;DHT22;42229;51.230;6.240;2022-07-25T10:10:53;28.00;74.20
27647;DHT22;42229;51.230;6.240;2022-07-25T10:13:32;28.00;74.40
27647;DHT22;42229;51.230;6.240;2022-07-25T10:15:59;28.00;75.10
27647;DHT22;42229;51.230;6.240;2022-07-25T10:18:27;28.10;74.60
27647;DHT22;42229;51.230;6.240;2022-07-25T10:21:16;28.20;69.50
27647;DHT22;42229;51.230;6.240;2022-07-25T10:23:41;28.20;68.80
27647;DHT22;42229;51.230;6.240;2022-07-25T10:26:14;28.20;69.70
27647;DHT22;42229;51.230;6.240;2022-07-25T10:28:49;28.40;72.10
27647;DHT22;42229;51.230;6.240;2022-07-25T10:33:50;28.50;71.50
27647;DHT22;42229;51.230;6.240;2022-07-25T10:36:18;28.60;72.50
27647;DHT22;42229;51.230;6.240;2022-07-25T10:38:45;28.60;72.30
27647;DHT22;42229;51.230;6.240;2022-07-25T10:41:12;28.60;73.00
27647;DHT22;42229;51.230;6.240;2022-07-25T10:43:42;28.70;71.40
27647;DHT22;42229;51.230;6.240;2022-07-25T10:46:10;28.70;71.80
27647;DHT22;42229;51.230;6.240;2022-07-25T10:48:39;28.80;72.10
27647;DHT22;42229;51.230;6.240;2022-07-25T10:51:06;28.80;71.80
27647;DHT22;42229;51.230;6.240;2022-07-25T10:56:12;29.00;70.30
27647;DHT22;42229;51.230;6.240;2022-07-25T10:59:01;29.00;70.90
27647;DHT22;42229;51.230;6.240;2022-07-25T11:01:28;29.10;71.50
27647;DHT22;42229;51.230;6.240;2022-07-25T11:03:58;29.10;71.60
27647;DHT22;42229;51.230;6.240;2022-07-25T11:06:43;29.10;71.10
27647;DHT22;42229;51.230;6.240;2022-07-25T11:09:13;29.20;72.70
27647;DHT22;42229;51.230;6.240;2022-07-25T11:11:41;29.20;71.90
27647;DHT22;42229;51.230;6.240;2022-07-25T11:14:17;29.20;72.20
27647;DHT22;42229;51.230;6.240;2022-07-25T11:16:46;29.20;71.60
27647;DHT22;42229;51.230;6.240;2022-07-25T11:21:50;29.20;71.50
27647;DHT22;42229;51.230;6.240;2022-07-25T11:24:21;29.20;73.40
27647;DHT22;42229;51.230;6.240;2022-07-25T11:27:09;29.20;73.30
27647;DHT22;42229;51.230;6.240;2022-07-25T11:29:37;29.30;74.00
27647;DHT22;42229;51.230;6.240;2022-07-25T11:32:04;29.30;73.20
27647;DHT22;42229;51.230;6.240;2022-07-25T11:34:34;29.40;73.80
27647;DHT22;42229;51.230;6.240;2022-07-25T11:37:06;29.40;72.90
27647;DHT22;42229;51.230;6.240;2022-07-25T11:39:35;29.30;73.20
27647;DHT22;42229;51.230;6.240;2022-07-25T11:44:41;29.30;73.60
27647;DHT22;42229;51.230;6.240;2022-07-25T11:47:20;29.40;74.00
27647;DHT22;42229;51.230;6.240;2022-07-25T11:49:49;29.40;73.10
27647;DHT22;42229;51.230;6.240;2022-07-25T11:52:23;29.40;73.50
27647;DHT22;42229;51.230;6.240;2022-07-25T11:57:45;29.40;75.30
27647;DHT22;42229;51.230;6.240;2022-07-25T12:00:16;29.40;73.70
27647;DHT22;42229;51.230;6.240;2022-07-25T12:02:44;29.40;73.70
27647;DHT22;42229;51.230;6.240;2022-07-25T12:05:12;29.30;73.60
27647;DHT22;42229;51.230;6.240;2022-07-25T12:07:52;29.40;73.10
27647;DHT22;42229;51.230;6.240;2022-07-25T12:10:30;29.40;73.70
27647;DHT22;42229;51.230;6.240;2022-07-25T12:12:57;29.40;73.00
27647;DHT22;42229;51.230;6.240;2022-07-25T12:15:27;29.50;71.60
27647;DHT22;42229;51.230;6.240;2022-07-25T12:17:55;29.60;71.40
27647;DHT22;42229;51.230;6.240;2022-07-25T12:20:26;29.60;69.40
27647;DHT22;42229;51.230;6.240;2022-07-25T12:22:54;29.70;69.90
27647;DHT22;42229;51.230;6.240;2022-07-25T12:25:23;29.60;70.30
27647;DHT22;42229;51.230;6.240;2022-07-25T12:27:50;29.60;69.30
27647;DHT22;42229;51.230;6.240;2022-07-25T12:30:17;29.60;70.80
27647;DHT22;42229;51.230;6.240;2022-07-25T12:32:44;29.60;70.60
27647;DHT22;42229;51.230;6.240;2022-07-25T12:35:11;29.70;68.50
27647;DHT22;42229;51.230;6.240;2022-07-25T12:37:39;29.90;69.60
27647;DHT22;42229;51.230;6.240;2022-07-25T12:40:07;30.00;68.90
27647;DHT22;42229;51.230;6.240;2022-07-25T12:42:33;30.10;69.60
27647;DHT22;42229;51.230;6.240;2022-07-25T12:45:00;30.20;69.50
27647;DHT22;42229;51.230;6.240;2022-07-25T12:47:26;30.30;68.70
27647;DHT22;42229;51.230;6.240;2022-07-25T12:49:53;30.30;68.40
27647;DHT22;42229;51.230;6.240;2022-07-25T12:52:20;30.30;69.00
27647;DHT22;42229;51.230;6.240;2022-07-25T12:54:46;30.30;67.70
27647;DHT22;42229;51.230;6.240;2022-07-25T12:57:13;30.30;68.30
27647;DHT22;42229;51.230;6.240;2022-07-25T12:59:39;30.40;66.00
27647;DHT22;42229;51.230;6.240;2022-07-25T13:02:06;30.50;66.80
27647;DHT22;42229;51.230;6.240;2022-07-25T13:04:33;30.60;66.20
27647;DHT22;42229;51.230;6.240;2022-07-25T13:06:59;30.60;65.90
27647;DHT22;42229;51.230;6.240;2022-07-25T13:09:25;30.50;66.70
27647;DHT22;42229;51.230;6.240;2022-07-25T13:11:52;30.50;65.80
27647;DHT22;42229;51.230;6.240;2022-07-25T13:14:18;30.50;65.50
27647;DHT22;42229;51.230;6.240;2022-07-25T13:16:45;30.40;65.60
27647;DHT22;42229;51.230;6.240;2022-07-25T13:19:12;30.40;65.80
27647;DHT22;42229;51.230;6.240;2022-07-25T13:21:40;30.30;66.30
27647;DHT22;42229;51.230;6.240;2022-07-25T13:24:07;30.10;66.30
27647;DHT22;42229;51.230;6.240;2022-07-25T13:26:33;30.10;66.40
27647;DHT22;42229;51.230;6.240;2022-07-25T13:29:00;29.90;67.70
27647;DHT22;42229;51.230;6.240;2022-07-25T13:31:26;29.70;67.40
27647;DHT22;42229;51.230;6.240;2022-07-25T13:33:53;29.60;68.30
27647;DHT22;42229;51.230;6.240;2022-07-25T13:36:19;29.40;68.90
27647;DHT22;42229;51.230;6.240;2022-07-25T13:38:45;29.20;69.40
27647;DHT22;42229;51.230;6.240;2022-07-25T13:41:13;29.00;69.80
27647;DHT22;42229;51.230;6.240;2022-07-25T13:43:40;29.00;70.80
27647;DHT22;42229;51.230;6.240;2022-07-25T13:46:07;28.80;70.50
27647;DHT22;42229;51.230;6.240;2022-07-25T13:48:34;28.80;70.50
27647;DHT22;42229;51.230;6.240;2022-07-25T13:51:00;28.70;69.60
27647;DHT22;42229;51.230;6.240;2022-07-25T13:53:26;28.60;70.70
27647;DHT22;42229;51.230;6.240;2022-07-25T13:55:53;28.40;71.40
27647;DHT22;42229;51.230;6.240;2022-07-25T13:58:19;28.20;71.80
27647;DHT22;42229;51.230;6.240;2022-07-25T14:00:45;28.10;72.60
27647;DHT22;42229;51.230;6.240;2022-07-25T14:03:12;28.00;73.00
27647;DHT22;42229;51.230;6.240;2022-07-25T14:05:38;28.00;73.80
27647;DHT22;42229;51.230;6.240;2022-07-25T14:08:04;28.00;74.70
27647;DHT22;42229;51.230;6.240;2022-07-25T14:10:32;28.00;74.20
27647;DHT22;42229;51.230;6.240;2022-07-25T14:12:58;28.00;73.90
27647;DHT22;42229;51.230;6.240;2022-07-25T14:15:25;28.00;74.50
27647;DHT22;42229;51.230;6.240;2022-07-25T14:17:51;27.90;74.80
27647;DHT22;42229;51.230;6.240;2022-07-25T14:20:17;27.90;75.40
27647;DHT22;42229;51.230;6.240;2022-07-25T14:22:44;27.80;75.20
27647;DHT22;42229;51.230;6.240;2022-07-25T14:25:10;27.80;75.90
27647;DHT22;42229;51.230;6.240;2022-07-25T14:27:37;27.60;76.00
27647;DHT22;42229;51.230;6.240;2022-07-25T14:30:04;27.50;75.70
27647;DHT22;42229;51.230;6.240;2022-07-25T14:32:31;27.30;76.80
27647;DHT22;42229;51.230;6.240;2022-07-25T14:34:57;27.30;77.40
27647;DHT22;42229;51.230;6.240;2022-07-25T14:37:26;27.30;77.30
27647;DHT22;42229;51.230;6.240;2022-07-25T14:39:58;27.20;77.70
27647;DHT22;42229;51.230;6.240;2022-07-25T14:42:25;27.20;77.90
27647;DHT22;42229;51.230;6.240;2022-07-25T14:44:51;27.10;78.20
27647;DHT22;42229;51.230;6.240;2022-07-25T14:47:18;27.20;77.80
27647;DHT22;42229;51.230;6.240;2022-07-25T14:49:44;27.20;78.10
27647;DHT22;42229;51.230;6.240;2022-07-25T14:52:10;27.20;75.90
27647;DHT22;42229;51.230;6.240;2022-07-25T14:54:37;27.30;75.70
27647;DHT22;42229;51.230;6.240;2022-07-25T14:57:04;27.40;74.90
27647;DHT22;42229;51.230;6.240;2022-07-25T14:59:30;27.60;73.40
27647;DHT22;42229;51.230;6.240;2022-07-25T15:01:56;27.80;72.90
27647;DHT22;42229;51.230;6.240;2022-07-25T15:04:23;28.00;72.10
27647;DHT22;42229;51.230;6.240;2022-07-25T15:06:50;28.10;69.50
27647;DHT22;42229;51.230;6.240;2022-07-25T15:09:17;28.20;70.30
27647;DHT22;42229;51.230;6.240;2022-07-25T15:11:45;28.30;69.70
27647;DHT22;42229;51.230;6.240;2022-07-25T15:14:11;28.50;69.70
27647;DHT22;42229;51.230;6.240;2022-07-25T15:16:38;28.50;67.00
27647;DHT22;42229;51.230;6.240;2022-07-25T15:19:04;28.60;66.70
27647;DHT22;42229;51.230;6.240;2022-07-25T15:21:33;28.60;64.60
27647;DHT22;42229;51.230;6.240;2022-07-25T15:23:59;28.60;64.90
27647;DHT22;42229;51.230;6.240;2022-07-25T15:26:25;28.60;65.70
27647;DHT22;42229;51.230;6.240;2022-07-25T15:28:52;28.50;65.00
27647;DHT22;42229;51.230;6.240;2022-07-25T15:31:18;28.40;65.90
27647;DHT22;42229;51.230;6.240;2022-07-25T15:33:46;28.30;64.90
27647;DHT22;42229;51.230;6.240;2022-07-25T15:36:12;28.30;66.20
27647;DHT22;42229;51.230;6.240;2022-07-25T15:38:38;28.20;64.50
27647;DHT22;42229;51.230;6.240;2022-07-25T15:41:04;28.20;65.00
27647;DHT22;42229;51.230;6.240;2022-07-25T15:43:31;28.40;65.90
27647;DHT22;42229;51.230;6.240;2022-07-25T15:45:58;28.50;65.30
27647;DHT22;42229;51.230;6.240;2022-07-25T15:48:24;28.70;64.70